Terminal Aerodrome Forecast
Issued by NWS

Home | Current Version | Previous Version | Text Only | Print | Product List | Glossary On
Versions: 1 2 3 4 5 6 7 8 9 10 11 12 13 14 15 16 17 18 19 20 21 22 23 24 25 26 27 28 29 30 31
000
FTUS45 KTWC 200500
TAFOLS
TAF
KOLS 200540Z 2006/2106 06004KT P6SM FEW080 SCT250
     FM200800 VRB04KT P6SM SCT250
     FM202100 23006KT P6SM SCT090 SCT200
     FM210300 VRB03KT P6SM SCT250=

USA.gov is the U.S. government's official web portal to all federal, state and local government web resources and services.